sensor_id;sensor_type;location;lat;lon;timestamp;temperature;humidity
68924;DHT22;55961;52.156;20.942;2023-12-22T00:00:01;5.10;86.70
68924;DHT22;55961;52.156;20.942;2023-12-22T00:02:28;5.10;86.40
68924;DHT22;55961;52.156;20.942;2023-12-22T00:04:55;5.10;86.20
68924;DHT22;55961;52.156;20.942;2023-12-22T00:07:20;5.10;86.20
68924;DHT22;55961;52.156;20.942;2023-12-22T00:09:46;5.10;85.30
68924;DHT22;55961;52.156;20.942;2023-12-22T00:12:12;5.10;85.10
68924;DHT22;55961;52.156;20.942;2023-12-22T00:14:38;5.10;85.10
68924;DHT22;55961;52.156;20.942;2023-12-22T00:17:06;5.10;84.90
68924;DHT22;55961;52.156;20.942;2023-12-22T00:19:32;5.10;84.70
68924;DHT22;55961;52.156;20.942;2023-12-22T00:21:58;5.10;84.60
68924;DHT22;55961;52.156;20.942;2023-12-22T00:24:24;5.10;84.60
68924;DHT22;55961;52.156;20.942;2023-12-22T00:26:50;5.10;84.40
68924;DHT22;55961;52.156;20.942;2023-12-22T00:29:16;5.00;84.50
68924;DHT22;55961;52.156;20.942;2023-12-22T00:31:42;5.10;84.50
68924;DHT22;55961;52.156;20.942;2023-12-22T00:34:08;5.00;84.60
68924;DHT22;55961;52.156;20.942;2023-12-22T00:36:34;5.00;84.50
68924;DHT22;55961;52.156;20.942;2023-12-22T00:39:00;5.00;84.30
68924;DHT22;55961;52.156;20.942;2023-12-22T00:41:26;5.00;84.30
68924;DHT22;55961;52.156;20.942;2023-12-22T00:43:52;5.00;83.70
68924;DHT22;55961;52.156;20.942;2023-12-22T00:46:17;5.00;83.50
68924;DHT22;55961;52.156;20.942;2023-12-22T00:48:44;5.00;83.80
68924;DHT22;55961;52.156;20.942;2023-12-22T00:51:10;5.00;83.60
68924;DHT22;55961;52.156;20.942;2023-12-22T00:53:36;5.00;83.80
68924;DHT22;55961;52.156;20.942;2023-12-22T00:56:02;4.90;83.60
68924;DHT22;55961;52.156;20.942;2023-12-22T00:58:29;4.90;83.10
68924;DHT22;55961;52.156;20.942;2023-12-22T01:00:55;4.90;83.20
68924;DHT22;55961;52.156;20.942;2023-12-22T01:03:22;4.90;82.50
68924;DHT22;55961;52.156;20.942;2023-12-22T01:05:48;4.90;82.40
68924;DHT22;55961;52.156;20.942;2023-12-22T01:08:14;4.80;82.00
68924;DHT22;55961;52.156;20.942;2023-12-22T01:10:39;4.80;82.00
68924;DHT22;55961;52.156;20.942;2023-12-22T01:13:05;4.80;80.90
68924;DHT22;55961;52.156;20.942;2023-12-22T01:15:31;4.80;80.50
68924;DHT22;55961;52.156;20.942;2023-12-22T01:17:57;4.80;80.00
68924;DHT22;55961;52.156;20.942;2023-12-22T01:20:23;4.80;79.60
68924;DHT22;55961;52.156;20.942;2023-12-22T01:22:49;4.80;79.50
68924;DHT22;55961;52.156;20.942;2023-12-22T01:25:15;4.80;79.10
68924;DHT22;55961;52.156;20.942;2023-12-22T01:27:41;4.70;78.90
68924;DHT22;55961;52.156;20.942;2023-12-22T01:30:07;4.70;79.00
68924;DHT22;55961;52.156;20.942;2023-12-22T01:32:34;4.70;78.50
68924;DHT22;55961;52.156;20.942;2023-12-22T01:35:02;4.60;78.40
68924;DHT22;55961;52.156;20.942;2023-12-22T01:37:32;4.60;78.10
68924;DHT22;55961;52.156;20.942;2023-12-22T01:39:58;4.60;78.50
68924;DHT22;55961;52.156;20.942;2023-12-22T01:42:24;4.60;78.90
68924;DHT22;55961;52.156;20.942;2023-12-22T01:44:50;4.50;78.30
68924;DHT22;55961;52.156;20.942;2023-12-22T01:47:17;4.60;77.90
68924;DHT22;55961;52.156;20.942;2023-12-22T01:49:42;4.60;77.50
68924;DHT22;55961;52.156;20.942;2023-12-22T01:52:09;4.60;77.70
68924;DHT22;55961;52.156;20.942;2023-12-22T01:54:35;4.60;77.60
68924;DHT22;55961;52.156;20.942;2023-12-22T01:57:02;4.60;77.90
68924;DHT22;55961;52.156;20.942;2023-12-22T01:59:28;4.60;77.90
68924;DHT22;55961;52.156;20.942;2023-12-22T02:01:56;4.50;77.60
68924;DHT22;55961;52.156;20.942;2023-12-22T02:04:23;4.50;77.70
68924;DHT22;55961;52.156;20.942;2023-12-22T02:06:51;4.50;77.60
68924;DHT22;55961;52.156;20.942;2023-12-22T02:09:16;4.50;77.60
68924;DHT22;55961;52.156;20.942;2023-12-22T02:11:42;4.50;76.90
68924;DHT22;55961;52.156;20.942;2023-12-22T02:14:08;4.50;77.20
68924;DHT22;55961;52.156;20.942;2023-12-22T02:19:26;4.50;77.20
68924;DHT22;55961;52.156;20.942;2023-12-22T02:22:04;4.50;77.60
68924;DHT22;55961;52.156;20.942;2023-12-22T02:24:30;4.50;77.80
68924;DHT22;55961;52.156;20.942;2023-12-22T02:27:13;4.50;77.90
68924;DHT22;55961;52.156;20.942;2023-12-22T02:32:36;4.60;77.60
68924;DHT22;55961;52.156;20.942;2023-12-22T02:35:08;4.60;77.50
68924;DHT22;55961;52.156;20.942;2023-12-22T02:37:37;4.60;77.60
68924;DHT22;55961;52.156;20.942;2023-12-22T02:40:05;4.60;77.50
68924;DHT22;55961;52.156;20.942;2023-12-22T02:42:33;4.70;77.80
68924;DHT22;55961;52.156;20.942;2023-12-22T02:45:00;4.60;77.90
68924;DHT22;55961;52.156;20.942;2023-12-22T02:47:26;4.60;77.70
68924;DHT22;55961;52.156;20.942;2023-12-22T02:49:54;4.60;77.70
68924;DHT22;55961;52.156;20.942;2023-12-22T02:52:21;4.60;77.90
68924;DHT22;55961;52.156;20.942;2023-12-22T02:54:46;4.60;77.30
68924;DHT22;55961;52.156;20.942;2023-12-22T02:57:13;4.60;77.20
68924;DHT22;55961;52.156;20.942;2023-12-22T02:59:39;4.60;77.00
68924;DHT22;55961;52.156;20.942;2023-12-22T03:02:05;4.60;76.60
68924;DHT22;55961;52.156;20.942;2023-12-22T03:04:31;4.60;75.80
68924;DHT22;55961;52.156;20.942;2023-12-22T03:06:57;4.60;75.70
68924;DHT22;55961;52.156;20.942;2023-12-22T03:09:23;4.60;75.30
68924;DHT22;55961;52.156;20.942;2023-12-22T03:11:49;4.60;75.40
68924;DHT22;55961;52.156;20.942;2023-12-22T03:14:15;4.70;75.90
68924;DHT22;55961;52.156;20.942;2023-12-22T03:16:41;4.70;75.90
68924;DHT22;55961;52.156;20.942;2023-12-22T03:19:07;4.60;76.80
68924;DHT22;55961;52.156;20.942;2023-12-22T03:21:33;4.60;77.20
68924;DHT22;55961;52.156;20.942;2023-12-22T03:23:59;4.60;77.80
68924;DHT22;55961;52.156;20.942;2023-12-22T03:26:27;4.60;77.70
68924;DHT22;55961;52.156;20.942;2023-12-22T03:28:53;4.60;78.20
68924;DHT22;55961;52.156;20.942;2023-12-22T03:31:19;4.50;78.80
68924;DHT22;55961;52.156;20.942;2023-12-22T03:33:45;4.40;79.00
68924;DHT22;55961;52.156;20.942;2023-12-22T03:36:11;4.40;79.10
68924;DHT22;55961;52.156;20.942;2023-12-22T03:38:37;4.30;79.40
68924;DHT22;55961;52.156;20.942;2023-12-22T03:41:03;4.30;79.70
68924;DHT22;55961;52.156;20.942;2023-12-22T03:43:29;4.30;80.00
68924;DHT22;55961;52.156;20.942;2023-12-22T03:45:57;4.20;79.50
68924;DHT22;55961;52.156;20.942;2023-12-22T03:48:23;4.20;79.20
68924;DHT22;55961;52.156;20.942;2023-12-22T03:50:49;4.20;78.90
68924;DHT22;55961;52.156;20.942;2023-12-22T03:53:15;4.20;78.60
68924;DHT22;55961;52.156;20.942;2023-12-22T03:55:41;4.20;79.00
68924;DHT22;55961;52.156;20.942;2023-12-22T03:58:06;4.20;79.40
68924;DHT22;55961;52.156;20.942;2023-12-22T04:00:33;4.10;79.30
68924;DHT22;55961;52.156;20.942;2023-12-22T04:03:00;4.10;79.60
68924;DHT22;55961;52.156;20.942;2023-12-22T04:05:27;4.10;79.30
68924;DHT22;55961;52.156;20.942;2023-12-22T04:07:52;4.10;79.20
68924;DHT22;55961;52.156;20.942;2023-12-22T04:10:19;4.10;78.50
68924;DHT22;55961;52.156;20.942;2023-12-22T04:12:44;4.10;78.90
68924;DHT22;55961;52.156;20.942;2023-12-22T04:15:11;4.10;79.10
68924;DHT22;55961;52.156;20.942;2023-12-22T04:17:36;4.10;79.10
68924;DHT22;55961;52.156;20.942;2023-12-22T04:20:03;4.10;79.30
68924;DHT22;55961;52.156;20.942;2023-12-22T04:22:28;4.10;79.20
68924;DHT22;55961;52.156;20.942;2023-12-22T04:24:55;4.10;79.20
68924;DHT22;55961;52.156;20.942;2023-12-22T04:27:21;4.10;78.60
68924;DHT22;55961;52.156;20.942;2023-12-22T04:29:47;4.10;78.60
68924;DHT22;55961;52.156;20.942;2023-12-22T04:32:13;4.10;78.50
68924;DHT22;55961;52.156;20.942;2023-12-22T04:34:39;4.10;78.20
68924;DHT22;55961;52.156;20.942;2023-12-22T04:37:05;4.10;78.10
68924;DHT22;55961;52.156;20.942;2023-12-22T04:39:31;4.00;78.40
68924;DHT22;55961;52.156;20.942;2023-12-22T04:41:57;4.10;78.80
68924;DHT22;55961;52.156;20.942;2023-12-22T04:44:23;4.00;79.10
68924;DHT22;55961;52.156;20.942;2023-12-22T04:46:49;4.00;79.60
68924;DHT22;55961;52.156;20.942;2023-12-22T04:49:16;3.90;80.50
68924;DHT22;55961;52.156;20.942;2023-12-22T04:51:42;3.90;81.40
68924;DHT22;55961;52.156;20.942;2023-12-22T04:54:08;3.80;81.90
68924;DHT22;55961;52.156;20.942;2023-12-22T04:56:34;3.70;82.60
68924;DHT22;55961;52.156;20.942;2023-12-22T04:59:00;3.70;83.90
68924;DHT22;55961;52.156;20.942;2023-12-22T05:01:26;3.60;84.90
68924;DHT22;55961;52.156;20.942;2023-12-22T05:03:52;3.50;86.00
68924;DHT22;55961;52.156;20.942;2023-12-22T05:06:19;3.40;86.70
68924;DHT22;55961;52.156;20.942;2023-12-22T05:08:46;3.30;86.40
68924;DHT22;55961;52.156;20.942;2023-12-22T05:11:12;3.20;86.40
68924;DHT22;55961;52.156;20.942;2023-12-22T05:13:38;3.10;86.50
68924;DHT22;55961;52.156;20.942;2023-12-22T05:16:05;3.10;87.10
68924;DHT22;55961;52.156;20.942;2023-12-22T05:18:32;3.00;87.00
68924;DHT22;55961;52.156;20.942;2023-12-22T05:20:58;3.00;87.20
68924;DHT22;55961;52.156;20.942;2023-12-22T05:23:24;3.00;87.50
68924;DHT22;55961;52.156;20.942;2023-12-22T05:25:49;3.00;87.20
68924;DHT22;55961;52.156;20.942;2023-12-22T05:28:16;3.00;87.00
68924;DHT22;55961;52.156;20.942;2023-12-22T05:30:42;3.00;86.70
68924;DHT22;55961;52.156;20.942;2023-12-22T05:33:08;3.00;87.10
68924;DHT22;55961;52.156;20.942;2023-12-22T05:35:33;3.00;86.90
68924;DHT22;55961;52.156;20.942;2023-12-22T05:37:59;3.00;86.70
68924;DHT22;55961;52.156;20.942;2023-12-22T05:40:25;3.10;86.10
68924;DHT22;55961;52.156;20.942;2023-12-22T05:42:51;3.00;85.70
68924;DHT22;55961;52.156;20.942;2023-12-22T05:45:17;3.10;85.90
68924;DHT22;55961;52.156;20.942;2023-12-22T05:47:44;3.00;86.00
68924;DHT22;55961;52.156;20.942;2023-12-22T05:50:10;3.10;85.70
68924;DHT22;55961;52.156;20.942;2023-12-22T05:52:36;3.10;85.60
68924;DHT22;55961;52.156;20.942;2023-12-22T05:55:02;3.10;85.60
68924;DHT22;55961;52.156;20.942;2023-12-22T05:57:28;3.10;84.90
68924;DHT22;55961;52.156;20.942;2023-12-22T05:59:54;3.10;84.80
68924;DHT22;55961;52.156;20.942;2023-12-22T06:02:20;3.10;85.10
68924;DHT22;55961;52.156;20.942;2023-12-22T06:04:46;3.10;84.60
68924;DHT22;55961;52.156;20.942;2023-12-22T06:07:12;3.10;84.50
68924;DHT22;55961;52.156;20.942;2023-12-22T06:09:38;3.10;83.90
68924;DHT22;55961;52.156;20.942;2023-12-22T06:12:05;3.10;83.60
68924;DHT22;55961;52.156;20.942;2023-12-22T06:14:31;3.10;83.10
68924;DHT22;55961;52.156;20.942;2023-12-22T06:16:58;3.20;82.60
68924;DHT22;55961;52.156;20.942;2023-12-22T06:19:24;3.20;81.30
68924;DHT22;55961;52.156;20.942;2023-12-22T06:21:54;3.20;80.60
68924;DHT22;55961;52.156;20.942;2023-12-22T06:24:20;3.20;80.40
68924;DHT22;55961;52.156;20.942;2023-12-22T06:26:46;3.20;79.70
68924;DHT22;55961;52.156;20.942;2023-12-22T06:29:11;3.30;78.10
68924;DHT22;55961;52.156;20.942;2023-12-22T06:31:38;3.30;77.50
68924;DHT22;55961;52.156;20.942;2023-12-22T06:34:03;3.30;75.80
68924;DHT22;55961;52.156;20.942;2023-12-22T06:36:30;3.40;74.10
68924;DHT22;55961;52.156;20.942;2023-12-22T06:38:56;3.40;73.10
68924;DHT22;55961;52.156;20.942;2023-12-22T06:41:30;3.50;71.20
68924;DHT22;55961;52.156;20.942;2023-12-22T06:43:57;3.50;71.60
68924;DHT22;55961;52.156;20.942;2023-12-22T06:46:26;3.60;70.70
68924;DHT22;55961;52.156;20.942;2023-12-22T06:48:53;3.60;70.60
68924;DHT22;55961;52.156;20.942;2023-12-22T06:51:27;3.60;69.70
68924;DHT22;55961;52.156;20.942;2023-12-22T06:53:54;3.60;68.60
68924;DHT22;55961;52.156;20.942;2023-12-22T06:56:27;3.60;69.10
68924;DHT22;55961;52.156;20.942;2023-12-22T06:58:55;3.50;67.70
68924;DHT22;55961;52.156;20.942;2023-12-22T07:03:55;3.50;68.00
68924;DHT22;55961;52.156;20.942;2023-12-22T07:06:25;3.50;68.30
68924;DHT22;55961;52.156;20.942;2023-12-22T07:11:48;3.50;69.10
68924;DHT22;55961;52.156;20.942;2023-12-22T07:14:16;3.50;68.70
68924;DHT22;55961;52.156;20.942;2023-12-22T07:16:42;3.50;69.10
68924;DHT22;55961;52.156;20.942;2023-12-22T07:19:09;3.50;68.70
68924;DHT22;55961;52.156;20.942;2023-12-22T07:21:36;3.50;68.30
68924;DHT22;55961;52.156;20.942;2023-12-22T07:24:02;3.40;68.40
68924;DHT22;55961;52.156;20.942;2023-12-22T07:26:28;3.50;68.70
68924;DHT22;55961;52.156;20.942;2023-12-22T07:28:54;3.50;67.80
68924;DHT22;55961;52.156;20.942;2023-12-22T07:31:20;3.40;67.70
68924;DHT22;55961;52.156;20.942;2023-12-22T07:33:46;3.50;67.50
68924;DHT22;55961;52.156;20.942;2023-12-22T07:36:13;3.50;66.90
68924;DHT22;55961;52.156;20.942;2023-12-22T07:38:44;3.50;67.30
68924;DHT22;55961;52.156;20.942;2023-12-22T07:41:10;3.50;66.90
68924;DHT22;55961;52.156;20.942;2023-12-22T07:43:36;3.50;67.30
68924;DHT22;55961;52.156;20.942;2023-12-22T07:46:02;3.50;66.10
68924;DHT22;55961;52.156;20.942;2023-12-22T07:48:28;3.50;66.20
68924;DHT22;55961;52.156;20.942;2023-12-22T07:50:54;3.40;66.60
68924;DHT22;55961;52.156;20.942;2023-12-22T07:53:20;3.40;67.30
68924;DHT22;55961;52.156;20.942;2023-12-22T07:55:47;3.40;66.80
68924;DHT22;55961;52.156;20.942;2023-12-22T07:58:13;3.30;66.20
68924;DHT22;55961;52.156;20.942;2023-12-22T08:00:39;3.30;65.90
68924;DHT22;55961;52.156;20.942;2023-12-22T08:03:05;3.30;65.10
68924;DHT22;55961;52.156;20.942;2023-12-22T08:05:32;3.20;64.80
68924;DHT22;55961;52.156;20.942;2023-12-22T08:07:59;3.20;64.90
68924;DHT22;55961;52.156;20.942;2023-12-22T08:10:25;3.20;64.80
68924;DHT22;55961;52.156;20.942;2023-12-22T08:12:53;3.20;64.90
68924;DHT22;55961;52.156;20.942;2023-12-22T08:15:19;3.20;65.40
68924;DHT22;55961;52.156;20.942;2023-12-22T08:17:50;3.20;65.50
68924;DHT22;55961;52.156;20.942;2023-12-22T08:20:18;3.20;66.30
68924;DHT22;55961;52.156;20.942;2023-12-22T08:22:48;3.20;67.10
68924;DHT22;55961;52.156;20.942;2023-12-22T08:25:15;3.10;67.20
68924;DHT22;55961;52.156;20.942;2023-12-22T08:27:41;3.10;67.60
68924;DHT22;55961;52.156;20.942;2023-12-22T08:30:10;3.10;68.20
68924;DHT22;55961;52.156;20.942;2023-12-22T08:32:36;3.10;68.40
68924;DHT22;55961;52.156;20.942;2023-12-22T08:35:03;3.10;69.10
68924;DHT22;55961;52.156;20.942;2023-12-22T08:37:30;3.10;69.50
68924;DHT22;55961;52.156;20.942;2023-12-22T08:39:56;3.10;69.60
68924;DHT22;55961;52.156;20.942;2023-12-22T08:42:23;3.10;70.00
68924;DHT22;55961;52.156;20.942;2023-12-22T08:44:50;3.10;70.30
68924;DHT22;55961;52.156;20.942;2023-12-22T08:47:16;3.10;70.40
68924;DHT22;55961;52.156;20.942;2023-12-22T08:49:42;3.10;70.40
68924;DHT22;55961;52.156;20.942;2023-12-22T08:52:08;3.10;70.70
68924;DHT22;55961;52.156;20.942;2023-12-22T08:54:34;3.10;69.60
68924;DHT22;55961;52.156;20.942;2023-12-22T08:57:04;3.10;70.40
68924;DHT22;55961;52.156;20.942;2023-12-22T08:59:30;3.10;70.80
68924;DHT22;55961;52.156;20.942;2023-12-22T09:01:55;3.10;71.10
68924;DHT22;55961;52.156;20.942;2023-12-22T09:04:21;3.10;71.50
68924;DHT22;55961;52.156;20.942;2023-12-22T09:06:51;3.10;71.40
68924;DHT22;55961;52.156;20.942;2023-12-22T09:09:17;3.10;70.80
68924;DHT22;55961;52.156;20.942;2023-12-22T09:11:43;3.20;70.20
68924;DHT22;55961;52.156;20.942;2023-12-22T09:14:10;3.20;70.40
68924;DHT22;55961;52.156;20.942;2023-12-22T09:16:37;3.20;70.40
68924;DHT22;55961;52.156;20.942;2023-12-22T09:19:03;3.30;69.70
68924;DHT22;55961;52.156;20.942;2023-12-22T09:21:29;3.40;69.30
68924;DHT22;55961;52.156;20.942;2023-12-22T09:23:55;3.40;69.10
68924;DHT22;55961;52.156;20.942;2023-12-22T09:26:21;3.50;68.50
68924;DHT22;55961;52.156;20.942;2023-12-22T09:28:47;3.50;68.00
68924;DHT22;55961;52.156;20.942;2023-12-22T09:31:13;3.50;67.10
68924;DHT22;55961;52.156;20.942;2023-12-22T09:33:40;3.60;67.30
68924;DHT22;55961;52.156;20.942;2023-12-22T09:36:07;3.70;66.60
68924;DHT22;55961;52.156;20.942;2023-12-22T09:38:34;3.80;66.50
68924;DHT22;55961;52.156;20.942;2023-12-22T09:41:01;3.90;65.90
68924;DHT22;55961;52.156;20.942;2023-12-22T09:43:27;3.90;66.70
68924;DHT22;55961;52.156;20.942;2023-12-22T09:45:54;4.00;66.10
68924;DHT22;55961;52.156;20.942;2023-12-22T09:48:21;4.20;65.50
68924;DHT22;55961;52.156;20.942;2023-12-22T09:50:53;4.20;65.60
68924;DHT22;55961;52.156;20.942;2023-12-22T09:53:20;4.30;65.10
68924;DHT22;55961;52.156;20.942;2023-12-22T09:55:48;4.40;65.10
68924;DHT22;55961;52.156;20.942;2023-12-22T09:58:15;4.40;63.80
68924;DHT22;55961;52.156;20.942;2023-12-22T10:00:43;4.40;64.10
68924;DHT22;55961;52.156;20.942;2023-12-22T10:03:11;4.40;63.90
68924;DHT22;55961;52.156;20.942;2023-12-22T10:05:41;4.40;64.20
68924;DHT22;55961;52.156;20.942;2023-12-22T10:08:09;4.30;64.50
68924;DHT22;55961;52.156;20.942;2023-12-22T10:10:39;4.30;64.50
68924;DHT22;55961;52.156;20.942;2023-12-22T10:13:09;4.20;65.00
68924;DHT22;55961;52.156;20.942;2023-12-22T10:15:45;4.20;66.20
68924;DHT22;55961;52.156;20.942;2023-12-22T10:18:12;3.70;78.00
68924;DHT22;55961;52.156;20.942;2023-12-22T10:20:39;3.00;82.20
68924;DHT22;55961;52.156;20.942;2023-12-22T10:23:05;2.60;83.80
68924;DHT22;55961;52.156;20.942;2023-12-22T10:25:31;2.20;85.40
68924;DHT22;55961;52.156;20.942;2023-12-22T10:28:00;1.80;87.40
68924;DHT22;55961;52.156;20.942;2023-12-22T10:30:27;1.50;88.90
68924;DHT22;55961;52.156;20.942;2023-12-22T10:32:54;1.30;90.00
68924;DHT22;55961;52.156;20.942;2023-12-22T10:35:23;1.10;90.70
68924;DHT22;55961;52.156;20.942;2023-12-22T10:37:49;0.90;91.20
68924;DHT22;55961;52.156;20.942;2023-12-22T10:40:19;0.80;92.70
68924;DHT22;55961;52.156;20.942;2023-12-22T10:42:45;0.60;93.30
68924;DHT22;55961;52.156;20.942;2023-12-22T10:45:11;0.60;94.00
68924;DHT22;55961;52.156;20.942;2023-12-22T10:47:38;0.50;94.70
68924;DHT22;55961;52.156;20.942;2023-12-22T10:50:05;0.50;95.10
68924;DHT22;55961;52.156;20.942;2023-12-22T10:52:32;0.40;95.40
68924;DHT22;55961;52.156;20.942;2023-12-22T10:54:59;0.40;96.50
68924;DHT22;55961;52.156;20.942;2023-12-22T10:57:26;0.30;96.40
68924;DHT22;55961;52.156;20.942;2023-12-22T10:59:53;0.30;96.70
68924;DHT22;55961;52.156;20.942;2023-12-22T11:02:22;0.30;96.90
68924;DHT22;55961;52.156;20.942;2023-12-22T11:05:01;0.30;97.10
68924;DHT22;55961;52.156;20.942;2023-12-22T11:07:28;0.40;97.10
68924;DHT22;55961;52.156;20.942;2023-12-22T11:09:56;0.40;96.90
68924;DHT22;55961;52.156;20.942;2023-12-22T11:12:27;0.50;96.60
68924;DHT22;55961;52.156;20.942;2023-12-22T11:14:54;0.60;95.60
68924;DHT22;55961;52.156;20.942;2023-12-22T11:17:22;0.60;95.00
68924;DHT22;55961;52.156;20.942;2023-12-22T11:19:49;0.70;94.00
68924;DHT22;55961;52.156;20.942;2023-12-22T11:22:18;0.70;93.10
68924;DHT22;55961;52.156;20.942;2023-12-22T11:24:49;0.70;92.80
68924;DHT22;55961;52.156;20.942;2023-12-22T11:27:19;0.80;93.20
68924;DHT22;55961;52.156;20.942;2023-12-22T11:29:48;0.90;93.20
68924;DHT22;55961;52.156;20.942;2023-12-22T11:32:18;1.00;91.80
68924;DHT22;55961;52.156;20.942;2023-12-22T11:34:45;1.00;91.30
68924;DHT22;55961;52.156;20.942;2023-12-22T11:37:13;1.10;90.90
68924;DHT22;55961;52.156;20.942;2023-12-22T11:39:40;1.20;90.50
68924;DHT22;55961;52.156;20.942;2023-12-22T11:42:14;1.30;90.70
68924;DHT22;55961;52.156;20.942;2023-12-22T11:44:41;1.40;90.10
68924;DHT22;55961;52.156;20.942;2023-12-22T11:47:09;1.60;89.80
68924;DHT22;55961;52.156;20.942;2023-12-22T11:49:36;1.70;89.00
68924;DHT22;55961;52.156;20.942;2023-12-22T11:52:16;1.80;87.90
68924;DHT22;55961;52.156;20.942;2023-12-22T11:54:50;2.00;87.60
68924;DHT22;55961;52.156;20.942;2023-12-22T12:00:08;2.20;86.10
68924;DHT22;55961;52.156;20.942;2023-12-22T12:02:40;2.20;85.90
68924;DHT22;55961;52.156;20.942;2023-12-22T12:05:08;2.30;85.20
68924;DHT22;55961;52.156;20.942;2023-12-22T12:07:45;2.30;85.40
68924;DHT22;55961;52.156;20.942;2023-12-22T12:10:12;2.30;85.50
68924;DHT22;55961;52.156;20.942;2023-12-22T12:12:40;2.30;85.10
68924;DHT22;55961;52.156;20.942;2023-12-22T12:15:08;2.30;85.20
68924;DHT22;55961;52.156;20.942;2023-12-22T12:17:38;2.30;85.50
68924;DHT22;55961;52.156;20.942;2023-12-22T12:20:06;2.30;85.50
68924;DHT22;55961;52.156;20.942;2023-12-22T12:22:33;2.30;85.40
68924;DHT22;55961;52.156;20.942;2023-12-22T12:24:59;2.20;85.20
68924;DHT22;55961;52.156;20.942;2023-12-22T12:27:27;2.20;85.10
68924;DHT22;55961;52.156;20.942;2023-12-22T12:29:53;2.20;85.50
68924;DHT22;55961;52.156;20.942;2023-12-22T12:32:23;2.10;85.60
68924;DHT22;55961;52.156;20.942;2023-12-22T12:34:50;2.10;85.70
68924;DHT22;55961;52.156;20.942;2023-12-22T12:37:16;2.00;86.00
68924;DHT22;55961;52.156;20.942;2023-12-22T12:39:43;2.00;86.00
68924;DHT22;55961;52.156;20.942;2023-12-22T12:42:13;1.90;86.30
68924;DHT22;55961;52.156;20.942;2023-12-22T12:44:42;1.90;86.50
68924;DHT22;55961;52.156;20.942;2023-12-22T12:47:13;1.90;86.90
68924;DHT22;55961;52.156;20.942;2023-12-22T12:49:40;1.80;87.20
68924;DHT22;55961;52.156;20.942;2023-12-22T12:52:05;1.80;87.50
68924;DHT22;55961;52.156;20.942;2023-12-22T12:54:37;1.80;87.90
68924;DHT22;55961;52.156;20.942;2023-12-22T12:57:03;1.80;88.30
68924;DHT22;55961;52.156;20.942;2023-12-22T12:59:29;1.70;88.90
68924;DHT22;55961;52.156;20.942;2023-12-22T13:01:55;1.70;89.20
68924;DHT22;55961;52.156;20.942;2023-12-22T13:04:23;1.60;89.80
68924;DHT22;55961;52.156;20.942;2023-12-22T13:06:49;1.60;90.20
68924;DHT22;55961;52.156;20.942;2023-12-22T13:09:16;1.60;90.90
68924;DHT22;55961;52.156;20.942;2023-12-22T13:11:43;1.50;91.20
68924;DHT22;55961;52.156;20.942;2023-12-22T13:14:12;1.50;91.50
68924;DHT22;55961;52.156;20.942;2023-12-22T13:16:39;1.40;92.00
68924;DHT22;55961;52.156;20.942;2023-12-22T13:19:05;1.40;92.40
68924;DHT22;55961;52.156;20.942;2023-12-22T13:21:31;1.40;92.50
68924;DHT22;55961;52.156;20.942;2023-12-22T13:24:11;1.40;92.80
68924;DHT22;55961;52.156;20.942;2023-12-22T13:26:40;1.40;92.70
68924;DHT22;55961;52.156;20.942;2023-12-22T13:29:07;1.40;93.00
68924;DHT22;55961;52.156;20.942;2023-12-22T13:31:35;1.40;93.00
68924;DHT22;55961;52.156;20.942;2023-12-22T13:34:02;1.40;92.80
68924;DHT22;55961;52.156;20.942;2023-12-22T13:36:33;1.40;93.10
68924;DHT22;55961;52.156;20.942;2023-12-22T13:38:59;1.40;93.30
68924;DHT22;55961;52.156;20.942;2023-12-22T13:41:25;1.30;93.50
68924;DHT22;55961;52.156;20.942;2023-12-22T13:43:51;1.30;93.60
68924;DHT22;55961;52.156;20.942;2023-12-22T13:46:17;1.30;93.70
68924;DHT22;55961;52.156;20.942;2023-12-22T13:48:44;1.30;93.80
68924;DHT22;55961;52.156;20.942;2023-12-22T13:51:10;1.30;93.80
68924;DHT22;55961;52.156;20.942;2023-12-22T13:53:47;1.30;93.80
68924;DHT22;55961;52.156;20.942;2023-12-22T13:56:14;1.30;93.80
68924;DHT22;55961;52.156;20.942;2023-12-22T13:58:44;1.30;94.20
68924;DHT22;55961;52.156;20.942;2023-12-22T14:01:15;1.30;94.20
68924;DHT22;55961;52.156;20.942;2023-12-22T14:03:42;1.30;94.30
68924;DHT22;55961;52.156;20.942;2023-12-22T14:06:08;1.20;94.40
68924;DHT22;55961;52.156;20.942;2023-12-22T14:08:35;1.20;94.80
68924;DHT22;55961;52.156;20.942;2023-12-22T14:11:01;1.20;94.90
68924;DHT22;55961;52.156;20.942;2023-12-22T14:13:28;1.20;95.20
68924;DHT22;55961;52.156;20.942;2023-12-22T14:15:54;1.20;95.00
68924;DHT22;55961;52.156;20.942;2023-12-22T14:18:20;1.20;95.30
68924;DHT22;55961;52.156;20.942;2023-12-22T14:20:46;1.20;95.50
68924;DHT22;55961;52.156;20.942;2023-12-22T14:23:12;1.10;95.50
68924;DHT22;55961;52.156;20.942;2023-12-22T14:25:44;1.20;95.60
68924;DHT22;55961;52.156;20.942;2023-12-22T14:28:11;1.10;95.60
68924;DHT22;55961;52.156;20.942;2023-12-22T14:30:36;1.10;95.80
68924;DHT22;55961;52.156;20.942;2023-12-22T14:33:02;1.10;96.00
68924;DHT22;55961;52.156;20.942;2023-12-22T14:35:28;1.10;96.00
68924;DHT22;55961;52.156;20.942;2023-12-22T14:37:54;1.10;96.20
68924;DHT22;55961;52.156;20.942;2023-12-22T14:40:20;1.10;96.40
68924;DHT22;55961;52.156;20.942;2023-12-22T14:42:46;1.10;96.50
68924;DHT22;55961;52.156;20.942;2023-12-22T14:45:12;1.00;96.70
68924;DHT22;55961;52.156;20.942;2023-12-22T14:47:38;1.00;96.80
68924;DHT22;55961;52.156;20.942;2023-12-22T14:50:04;1.00;96.80
68924;DHT22;55961;52.156;20.942;2023-12-22T14:52:31;1.00;97.00
68924;DHT22;55961;52.156;20.942;2023-12-22T14:54:58;1.00;97.00
68924;DHT22;55961;52.156;20.942;2023-12-22T14:57:24;1.00;96.80
68924;DHT22;55961;52.156;20.942;2023-12-22T14:59:50;1.00;96.70
68924;DHT22;55961;52.156;20.942;2023-12-22T15:02:16;1.00;96.10
68924;DHT22;55961;52.156;20.942;2023-12-22T15:04:42;1.00;95.80
68924;DHT22;55961;52.156;20.942;2023-12-22T15:07:08;1.10;95.70
68924;DHT22;55961;52.156;20.942;2023-12-22T15:09:39;1.10;95.60
68924;DHT22;55961;52.156;20.942;2023-12-22T15:12:05;1.10;95.50
68924;DHT22;55961;52.156;20.942;2023-12-22T15:14:31;1.20;95.00
68924;DHT22;55961;52.156;20.942;2023-12-22T15:16:57;1.20;95.20
68924;DHT22;55961;52.156;20.942;2023-12-22T15:19:23;1.20;95.20
68924;DHT22;55961;52.156;20.942;2023-12-22T15:21:49;1.20;95.30
68924;DHT22;55961;52.156;20.942;2023-12-22T15:24:15;1.20;95.30
68924;DHT22;55961;52.156;20.942;2023-12-22T15:26:41;1.20;95.40
68924;DHT22;55961;52.156;20.942;2023-12-22T15:29:08;1.20;95.70
68924;DHT22;55961;52.156;20.942;2023-12-22T15:31:35;1.20;95.80
68924;DHT22;55961;52.156;20.942;2023-12-22T15:34:01;1.10;96.00
68924;DHT22;55961;52.156;20.942;2023-12-22T15:36:27;1.10;96.40
68924;DHT22;55961;52.156;20.942;2023-12-22T15:38:54;1.10;96.70
68924;DHT22;55961;52.156;20.942;2023-12-22T15:41:21;1.10;96.60